createdAt,value
2023-02-27T00:00:01.456Z,2.00
2023-02-27T00:02:28.216Z,2.00
2023-02-27T00:04:57.486Z,1.90
2023-02-27T00:07:26.197Z,2.10
2023-02-27T00:09:53.411Z,2.10
2023-02-27T00:12:20.339Z,1.90
2023-02-27T00:14:47.121Z,1.90
2023-02-27T00:17:13.881Z,1.80
2023-02-27T00:19:40.664Z,1.80
2023-02-27T00:22:07.371Z,1.80
2023-02-27T00:24:34.218Z,1.90
2023-02-27T00:27:01.140Z,1.80
2023-02-27T00:29:27.934Z,1.70
2023-02-27T00:31:54.763Z,1.70
2023-02-27T00:34:21.504Z,1.90
2023-02-27T00:36:48.293Z,1.80
2023-02-27T00:39:15.872Z,1.70
2023-02-27T00:41:42.600Z,1.80
2023-02-27T00:44:09.377Z,1.70
2023-02-27T00:46:36.240Z,1.60
2023-02-27T00:49:03.112Z,1.60
2023-02-27T00:51:29.824Z,1.60
2023-02-27T00:53:56.827Z,1.60
2023-02-27T00:56:23.551Z,1.50
2023-02-27T00:58:50.289Z,1.40
2023-02-27T01:01:17.119Z,1.50
2023-02-27T01:03:43.860Z,1.60
2023-02-27T01:06:10.680Z,1.70
2023-02-27T01:08:37.489Z,1.70
2023-02-27T01:11:04.331Z,1.80
2023-02-27T01:13:31.126Z,1.80
2023-02-27T01:15:57.876Z,1.80
2023-02-27T01:18:24.699Z,1.80
2023-02-27T01:20:55.670Z,1.80
2023-02-27T01:23:23.000Z,1.70
2023-02-27T01:25:50.349Z,1.80
2023-02-27T01:28:17.313Z,1.80
2023-02-27T01:30:44.507Z,1.90
2023-02-27T01:33:11.311Z,1.80
2023-02-27T01:35:38.321Z,1.70
2023-02-27T01:38:05.120Z,1.70
2023-02-27T01:40:40.218Z,1.70
2023-02-27T01:43:07.551Z,1.60
2023-02-27T01:45:42.025Z,1.50
2023-02-27T01:48:20.161Z,1.30
2023-02-27T01:50:54.852Z,1.30
2023-02-27T01:53:26.006Z,1.30
2023-02-27T01:56:00.757Z,1.20
2023-02-27T01:58:27.888Z,1.30
2023-02-27T02:00:55.474Z,1.30
2023-02-27T02:03:44.290Z,1.40
2023-02-27T02:06:12.461Z,1.50
2023-02-27T02:08:45.670Z,1.30
2023-02-27T02:11:14.989Z,1.30
2023-02-27T02:13:42.368Z,1.20
2023-02-27T02:16:37.061Z,1.30
2023-02-27T02:19:22.427Z,1.20
2023-02-27T02:22:06.677Z,1.30
2023-02-27T02:24:48.244Z,1.20
2023-02-27T02:27:47.180Z,1.20
2023-02-27T02:30:55.138Z,1.10
2023-02-27T02:33:31.003Z,1.10
2023-02-27T02:36:28.384Z,1.20
2023-02-27T02:39:20.251Z,1.20
2023-02-27T02:42:07.753Z,1.20
2023-02-27T02:44:43.075Z,1.30
2023-02-27T02:47:21.843Z,1.30
2023-02-27T02:50:21.560Z,1.20
2023-02-27T02:53:14.040Z,1.10
2023-02-27T02:56:05.061Z,1.10
2023-02-27T02:58:38.482Z,1.20
2023-02-27T03:01:12.896Z,1.20
2023-02-27T03:03:49.058Z,1.10
2023-02-27T03:06:26.978Z,1.10
2023-02-27T03:08:58.229Z,1.20
2023-02-27T03:11:29.225Z,1.10
2023-02-27T03:14:18.197Z,1.00
2023-02-27T03:16:48.901Z,1.00
2023-02-27T03:19:22.254Z,1.00
2023-02-27T03:21:57.183Z,1.00
2023-02-27T03:24:30.243Z,1.00
2023-02-27T03:27:02.987Z,1.10
2023-02-27T03:29:56.687Z,1.00
2023-02-27T03:32:56.840Z,0.90
2023-02-27T03:35:29.749Z,1.00
2023-02-27T03:38:08.729Z,1.00
2023-02-27T03:40:49.186Z,1.00
2023-02-27T03:43:38.719Z,0.90
2023-02-27T03:46:18.332Z,0.90
2023-02-27T03:48:46.472Z,0.80
2023-02-27T03:51:19.346Z,0.70
2023-02-27T03:53:52.129Z,0.80
2023-02-27T03:56:24.947Z,0.70
2023-02-27T03:58:52.582Z,0.70
2023-02-27T04:01:19.486Z,0.60
2023-02-27T04:03:58.227Z,0.70
2023-02-27T04:06:43.947Z,0.60
2023-02-27T04:09:48.894Z,0.60
2023-02-27T04:12:36.893Z,0.60
2023-02-27T04:15:29.463Z,0.60
2023-02-27T04:18:17.278Z,0.60
2023-02-27T04:21:29.553Z,0.60
2023-02-27T04:24:10.322Z,0.50
2023-02-27T04:26:53.025Z,0.40
2023-02-27T04:29:25.673Z,0.50
2023-02-27T04:31:59.624Z,0.50
2023-02-27T04:34:29.167Z,0.60
2023-02-27T04:37:02.127Z,0.60
2023-02-27T04:39:46.082Z,0.50
2023-02-27T04:42:17.871Z,0.40
2023-02-27T04:44:46.557Z,0.40
2023-02-27T04:47:15.926Z,0.30
2023-02-27T04:49:53.418Z,0.40
2023-02-27T04:52:34.350Z,0.50
2023-02-27T04:55:01.046Z,0.50
2023-02-27T04:57:35.617Z,0.50
2023-02-27T05:00:07.663Z,0.60
2023-02-27T05:02:38.888Z,0.50
2023-02-27T05:05:13.344Z,0.50
2023-02-27T05:07:48.133Z,0.60
2023-02-27T05:10:38.963Z,0.50
2023-02-27T05:13:14.175Z,0.50
2023-02-27T05:15:52.804Z,0.60
2023-02-27T05:18:21.801Z,0.60
2023-02-27T05:21:00.858Z,0.60
2023-02-27T05:23:49.477Z,0.70
2023-02-27T05:26:43.339Z,0.60
2023-02-27T05:29:28.139Z,0.60
2023-02-27T05:32:15.308Z,0.50
2023-02-27T05:34:54.753Z,0.50
2023-02-27T05:37:55.438Z,0.50
2023-02-27T05:40:27.891Z,0.60
2023-02-27T05:43:27.669Z,0.80
2023-02-27T05:46:01.265Z,0.80
2023-02-27T05:48:32.718Z,0.80
2023-02-27T05:50:59.874Z,0.80
2023-02-27T05:53:32.224Z,0.70
2023-02-27T05:56:01.800Z,0.80
2023-02-27T05:59:09.905Z,0.80
2023-02-27T06:01:36.900Z,0.80
2023-02-27T06:04:03.661Z,0.80
2023-02-27T06:06:31.040Z,0.90
2023-02-27T06:08:57.887Z,0.80
2023-02-27T06:11:24.607Z,0.80
2023-02-27T06:13:51.337Z,0.60
2023-02-27T06:16:18.279Z,0.60
2023-02-27T06:18:45.142Z,0.60
2023-02-27T06:21:15.678Z,0.70
2023-02-27T06:23:42.866Z,0.70
2023-02-27T06:26:13.813Z,0.70
2023-02-27T06:28:42.458Z,0.60
2023-02-27T06:31:09.467Z,0.70
2023-02-27T06:33:36.249Z,0.80
2023-02-27T06:36:03.210Z,0.80
2023-02-27T06:38:30.099Z,0.80
2023-02-27T06:40:57.023Z,0.70
2023-02-27T06:43:23.766Z,0.80
2023-02-27T06:45:54.109Z,0.90
2023-02-27T06:48:21.011Z,1.10
2023-02-27T06:50:56.255Z,1.10
2023-02-27T06:53:24.333Z,1.00
2023-02-27T06:55:51.300Z,0.90
2023-02-27T06:58:18.675Z,0.80
2023-02-27T07:00:45.440Z,0.80
2023-02-27T07:03:13.301Z,0.80
2023-02-27T07:05:41.921Z,0.80
2023-02-27T07:08:09.579Z,0.90
2023-02-27T07:10:36.688Z,0.90
2023-02-27T07:13:03.550Z,1.10
2023-02-27T07:15:30.444Z,1.10
2023-02-27T07:17:57.212Z,0.90
2023-02-27T07:20:23.984Z,0.90
2023-02-27T07:22:51.493Z,1.00
2023-02-27T07:25:18.478Z,0.90
2023-02-27T07:27:46.682Z,1.00
2023-02-27T07:30:13.764Z,1.00
2023-02-27T07:32:40.478Z,1.10
2023-02-27T07:35:08.647Z,1.10
2023-02-27T07:37:36.025Z,1.10
2023-02-27T07:40:03.219Z,1.00
2023-02-27T07:42:30.087Z,1.10
2023-02-27T07:44:57.004Z,1.20
2023-02-27T07:47:23.804Z,1.30
2023-02-27T07:49:50.545Z,1.30
2023-02-27T07:52:17.466Z,1.20
2023-02-27T07:54:44.210Z,1.30
2023-02-27T07:57:11.111Z,1.40
2023-02-27T07:59:37.896Z,1.40
2023-02-27T08:02:04.678Z,1.30
2023-02-27T08:04:32.209Z,1.20
2023-02-27T08:06:59.145Z,1.30
2023-02-27T08:09:25.907Z,1.20
2023-02-27T08:11:52.856Z,1.00
2023-02-27T08:14:19.654Z,1.10
2023-02-27T08:16:46.424Z,1.00
2023-02-27T08:19:14.600Z,1.00
2023-02-27T08:21:41.717Z,1.10
2023-02-27T08:24:08.523Z,1.10
2023-02-27T10:39:06.333Z,3.00
2023-02-27T15:36:30.552Z,1.30
2023-02-27T15:44:35.320Z,1.30
2023-02-27T19:50:07.608Z,0.30
